sensor_id;sensor_type;location;lat;lon;timestamp;P1;durP1;ratioP1;P2;durP2;ratioP2
74465;SDS011;62916;50.044;15.938;2023-01-08T00:02:08;2.50;;;2.30;;
74465;SDS011;62916;50.044;15.938;2023-01-08T00:04:39;2.60;;;2.20;;
74465;SDS011;62916;50.044;15.938;2023-01-08T00:07:10;2.40;;;2.10;;
74465;SDS011;62916;50.044;15.938;2023-01-08T00:09:41;2.30;;;2.10;;
74465;SDS011;62916;50.044;15.938;2023-01-08T00:12:11;2.60;;;2.40;;
74465;SDS011;62916;50.044;15.938;2023-01-08T00:14:42;2.40;;;2.10;;
74465;SDS011;62916;50.044;15.938;2023-01-08T00:17:13;3.10;;;2.00;;
74465;SDS011;62916;50.044;15.938;2023-01-08T00:19:44;2.60;;;2.10;;
74465;SDS011;62916;50.044;15.938;2023-01-08T00:22:14;2.60;;;2.40;;
74465;SDS011;62916;50.044;15.938;2023-01-08T00:24:45;3.40;;;1.90;;
74465;SDS011;62916;50.044;15.938;2023-01-08T00:27:16;2.20;;;2.00;;
74465;SDS011;62916;50.044;15.938;2023-01-08T00:29:46;3.30;;;2.00;;
74465;SDS011;62916;50.044;15.938;2023-01-08T00:32:17;2.80;;;1.80;;
74465;SDS011;62916;50.044;15.938;2023-01-08T00:34:48;2.60;;;2.00;;
74465;SDS011;62916;50.044;15.938;2023-01-08T00:37:21;2.90;;;2.60;;
74465;SDS011;62916;50.044;15.938;2023-01-08T00:39:52;2.80;;;2.20;;
74465;SDS011;62916;50.044;15.938;2023-01-08T00:42:22;2.50;;;2.00;;
74465;SDS011;62916;50.044;15.938;2023-01-08T00:44:53;2.40;;;2.00;;
74465;SDS011;62916;50.044;15.938;2023-01-08T00:47:24;2.90;;;2.50;;
74465;SDS011;62916;50.044;15.938;2023-01-08T00:49:55;2.00;;;1.70;;
74465;SDS011;62916;50.044;15.938;2023-01-08T00:52:25;2.20;;;1.90;;
74465;SDS011;62916;50.044;15.938;2023-01-08T00:54:56;2.50;;;2.00;;
74465;SDS011;62916;50.044;15.938;2023-01-08T00:57:27;2.40;;;2.20;;
74465;SDS011;62916;50.044;15.938;2023-01-08T01:00:02;1.90;;;1.80;;
74465;SDS011;62916;50.044;15.938;2023-01-08T01:02:36;2.50;;;2.30;;
74465;SDS011;62916;50.044;15.938;2023-01-08T01:05:08;3.50;;;2.20;;
74465;SDS011;62916;50.044;15.938;2023-01-08T01:07:42;2.60;;;1.80;;
74465;SDS011;62916;50.044;15.938;2023-01-08T01:10:13;2.50;;;2.10;;
74465;SDS011;62916;50.044;15.938;2023-01-08T01:12:46;2.50;;;2.00;;
74465;SDS011;62916;50.044;15.938;2023-01-08T01:15:17;1.90;;;1.70;;
74465;SDS011;62916;50.044;15.938;2023-01-08T01:17:48;2.80;;;1.90;;
74465;SDS011;62916;50.044;15.938;2023-01-08T01:20:19;3.00;;;2.10;;
74465;SDS011;62916;50.044;15.938;2023-01-08T01:22:50;2.30;;;2.10;;
74465;SDS011;62916;50.044;15.938;2023-01-08T01:25:21;3.80;;;2.00;;
74465;SDS011;62916;50.044;15.938;2023-01-08T01:27:52;2.60;;;2.20;;
74465;SDS011;62916;50.044;15.938;2023-01-08T01:30:24;2.20;;;1.90;;
74465;SDS011;62916;50.044;15.938;2023-01-08T01:32:55;2.60;;;1.80;;
74465;SDS011;62916;50.044;15.938;2023-01-08T01:35:25;2.30;;;1.80;;
74465;SDS011;62916;50.044;15.938;2023-01-08T01:37:56;2.50;;;2.20;;
74465;SDS011;62916;50.044;15.938;2023-01-08T01:40:27;2.40;;;2.00;;
74465;SDS011;62916;50.044;15.938;2023-01-08T01:42:58;2.60;;;2.10;;
74465;SDS011;62916;50.044;15.938;2023-01-08T01:45:29;2.90;;;2.20;;
74465;SDS011;62916;50.044;15.938;2023-01-08T01:48:01;2.20;;;1.80;;
74465;SDS011;62916;50.044;15.938;2023-01-08T01:50:36;3.00;;;2.40;;
74465;SDS011;62916;50.044;15.938;2023-01-08T01:53:11;2.70;;;1.90;;
74465;SDS011;62916;50.044;15.938;2023-01-08T01:55:45;2.40;;;2.10;;
74465;SDS011;62916;50.044;15.938;2023-01-08T01:58:18;2.40;;;1.70;;
74465;SDS011;62916;50.044;15.938;2023-01-08T02:00:52;2.50;;;2.00;;
74465;SDS011;62916;50.044;15.938;2023-01-08T02:03:26;3.10;;;2.10;;
74465;SDS011;62916;50.044;15.938;2023-01-08T02:08:32;2.60;;;1.80;;
74465;SDS011;62916;50.044;15.938;2023-01-08T02:11:10;2.30;;;1.90;;
74465;SDS011;62916;50.044;15.938;2023-01-08T02:13:46;2.40;;;2.00;;
74465;SDS011;62916;50.044;15.938;2023-01-08T02:16:24;2.30;;;1.90;;
74465;SDS011;62916;50.044;15.938;2023-01-08T02:19:03;2.30;;;2.00;;
74465;SDS011;62916;50.044;15.938;2023-01-08T02:21:47;2.80;;;2.10;;
74465;SDS011;62916;50.044;15.938;2023-01-08T02:24:32;2.20;;;2.00;;
74465;SDS011;62916;50.044;15.938;2023-01-08T02:27:11;2.10;;;1.90;;
74465;SDS011;62916;50.044;15.938;2023-01-08T02:29:43;2.00;;;1.80;;
74465;SDS011;62916;50.044;15.938;2023-01-08T02:32:15;2.00;;;1.70;;
74465;SDS011;62916;50.044;15.938;2023-01-08T02:34:46;1.90;;;1.70;;
74465;SDS011;62916;50.044;15.938;2023-01-08T02:37:17;2.20;;;1.90;;
74465;SDS011;62916;50.044;15.938;2023-01-08T02:40:00;2.50;;;1.90;;
74465;SDS011;62916;50.044;15.938;2023-01-08T02:42:41;2.10;;;1.90;;
74465;SDS011;62916;50.044;15.938;2023-01-08T02:45:25;2.10;;;1.90;;
74465;SDS011;62916;50.044;15.938;2023-01-08T02:48:06;2.60;;;2.10;;
74465;SDS011;62916;50.044;15.938;2023-01-08T02:50:42;2.10;;;1.80;;
74465;SDS011;62916;50.044;15.938;2023-01-08T02:53:17;1.90;;;1.70;;
74465;SDS011;62916;50.044;15.938;2023-01-08T02:55:51;2.20;;;2.00;;
74465;SDS011;62916;50.044;15.938;2023-01-08T02:58:30;2.20;;;1.90;;
74465;SDS011;62916;50.044;15.938;2023-01-08T03:01:03;2.50;;;2.20;;
74465;SDS011;62916;50.044;15.938;2023-01-08T03:03:36;2.50;;;2.10;;
74465;SDS011;62916;50.044;15.938;2023-01-08T03:06:11;2.70;;;2.50;;
74465;SDS011;62916;50.044;15.938;2023-01-08T03:08:45;1.90;;;1.70;;
74465;SDS011;62916;50.044;15.938;2023-01-08T03:11:18;1.70;;;1.50;;
74465;SDS011;62916;50.044;15.938;2023-01-08T03:13:52;2.50;;;1.90;;
74465;SDS011;62916;50.044;15.938;2023-01-08T03:16:27;2.30;;;2.10;;
74465;SDS011;62916;50.044;15.938;2023-01-08T03:19:01;2.00;;;1.70;;
74465;SDS011;62916;50.044;15.938;2023-01-08T03:21:37;1.90;;;1.70;;
74465;SDS011;62916;50.044;15.938;2023-01-08T03:24:11;2.80;;;1.80;;
74465;SDS011;62916;50.044;15.938;2023-01-08T03:26:45;2.00;;;1.80;;
74465;SDS011;62916;50.044;15.938;2023-01-08T03:31:51;2.20;;;1.70;;
74465;SDS011;62916;50.044;15.938;2023-01-08T03:34:25;1.90;;;1.70;;
74465;SDS011;62916;50.044;15.938;2023-01-08T03:37:00;2.10;;;1.90;;
74465;SDS011;62916;50.044;15.938;2023-01-08T03:39:36;2.20;;;1.80;;
74465;SDS011;62916;50.044;15.938;2023-01-08T03:42:10;2.20;;;1.70;;
74465;SDS011;62916;50.044;15.938;2023-01-08T03:44:42;2.00;;;1.80;;
74465;SDS011;62916;50.044;15.938;2023-01-08T03:47:14;2.40;;;1.60;;
74465;SDS011;62916;50.044;15.938;2023-01-08T03:49:47;2.20;;;1.40;;
74465;SDS011;62916;50.044;15.938;2023-01-08T03:52:21;2.80;;;2.10;;
74465;SDS011;62916;50.044;15.938;2023-01-08T03:54:53;2.20;;;1.70;;
74465;SDS011;62916;50.044;15.938;2023-01-08T03:57:24;2.20;;;1.90;;
74465;SDS011;62916;50.044;15.938;2023-01-08T03:59:55;2.80;;;1.90;;
74465;SDS011;62916;50.044;15.938;2023-01-08T04:02:26;2.40;;;1.80;;
74465;SDS011;62916;50.044;15.938;2023-01-08T04:04:57;2.20;;;2.00;;
74465;SDS011;62916;50.044;15.938;2023-01-08T04:07:27;2.20;;;1.90;;
74465;SDS011;62916;50.044;15.938;2023-01-08T04:09:58;2.70;;;2.10;;
74465;SDS011;62916;50.044;15.938;2023-01-08T04:12:29;2.80;;;1.90;;
74465;SDS011;62916;50.044;15.938;2023-01-08T04:15:00;2.70;;;2.20;;
74465;SDS011;62916;50.044;15.938;2023-01-08T04:17:31;2.60;;;2.40;;
74465;SDS011;62916;50.044;15.938;2023-01-08T04:20:02;2.30;;;2.00;;
74465;SDS011;62916;50.044;15.938;2023-01-08T04:22:34;2.30;;;1.90;;
74465;SDS011;62916;50.044;15.938;2023-01-08T04:25:06;2.50;;;2.00;;
74465;SDS011;62916;50.044;15.938;2023-01-08T04:27:37;2.70;;;2.50;;
74465;SDS011;62916;50.044;15.938;2023-01-08T04:30:09;2.10;;;1.70;;
74465;SDS011;62916;50.044;15.938;2023-01-08T04:32:42;2.30;;;1.80;;
74465;SDS011;62916;50.044;15.938;2023-01-08T04:35:13;2.60;;;2.00;;
74465;SDS011;62916;50.044;15.938;2023-01-08T04:37:43;2.60;;;1.70;;
74465;SDS011;62916;50.044;15.938;2023-01-08T04:40:14;2.20;;;2.00;;
74465;SDS011;62916;50.044;15.938;2023-01-08T04:42:46;2.30;;;2.00;;
74465;SDS011;62916;50.044;15.938;2023-01-08T04:45:17;2.60;;;1.80;;
74465;SDS011;62916;50.044;15.938;2023-01-08T04:47:48;2.30;;;2.10;;
74465;SDS011;62916;50.044;15.938;2023-01-08T04:50:25;2.50;;;1.80;;
74465;SDS011;62916;50.044;15.938;2023-01-08T04:52:57;2.30;;;2.00;;
74465;SDS011;62916;50.044;15.938;2023-01-08T04:55:28;3.30;;;1.90;;
74465;SDS011;62916;50.044;15.938;2023-01-08T04:57:59;2.10;;;1.80;;
74465;SDS011;62916;50.044;15.938;2023-01-08T05:00:30;2.20;;;1.80;;
74465;SDS011;62916;50.044;15.938;2023-01-08T05:03:00;2.10;;;1.90;;
74465;SDS011;62916;50.044;15.938;2023-01-08T05:05:32;2.10;;;1.70;;
74465;SDS011;62916;50.044;15.938;2023-01-08T05:08:03;2.00;;;1.80;;
74465;SDS011;62916;50.044;15.938;2023-01-08T05:10:34;2.30;;;1.90;;
74465;SDS011;62916;50.044;15.938;2023-01-08T05:13:05;2.00;;;1.80;;
74465;SDS011;62916;50.044;15.938;2023-01-08T05:15:36;2.10;;;1.60;;
74465;SDS011;62916;50.044;15.938;2023-01-08T05:18:08;3.50;;;1.90;;
74465;SDS011;62916;50.044;15.938;2023-01-08T05:20:39;2.00;;;1.80;;
74465;SDS011;62916;50.044;15.938;2023-01-08T05:23:10;1.90;;;1.70;;
74465;SDS011;62916;50.044;15.938;2023-01-08T05:25:41;2.50;;;1.80;;
74465;SDS011;62916;50.044;15.938;2023-01-08T05:28:11;2.00;;;1.70;;
74465;SDS011;62916;50.044;15.938;2023-01-08T05:30:43;2.10;;;1.90;;
74465;SDS011;62916;50.044;15.938;2023-01-08T05:33:13;1.90;;;1.60;;
74465;SDS011;62916;50.044;15.938;2023-01-08T05:35:44;1.80;;;1.60;;
74465;SDS011;62916;50.044;15.938;2023-01-08T05:38:15;2.00;;;1.70;;
74465;SDS011;62916;50.044;15.938;2023-01-08T05:40:45;2.30;;;1.40;;
74465;SDS011;62916;50.044;15.938;2023-01-08T05:43:19;1.40;;;1.30;;
74465;SDS011;62916;50.044;15.938;2023-01-08T05:45:50;2.00;;;1.80;;
74465;SDS011;62916;50.044;15.938;2023-01-08T05:48:21;2.60;;;2.10;;
74465;SDS011;62916;50.044;15.938;2023-01-08T05:50:52;2.20;;;2.00;;
74465;SDS011;62916;50.044;15.938;2023-01-08T05:53:22;1.70;;;1.60;;
74465;SDS011;62916;50.044;15.938;2023-01-08T05:55:58;1.90;;;1.60;;
74465;SDS011;62916;50.044;15.938;2023-01-08T05:58:30;2.20;;;1.70;;
74465;SDS011;62916;50.044;15.938;2023-01-08T06:01:01;1.60;;;1.50;;
74465;SDS011;62916;50.044;15.938;2023-01-08T06:03:33;2.40;;;1.80;;
74465;SDS011;62916;50.044;15.938;2023-01-08T06:06:06;1.70;;;1.60;;
74465;SDS011;62916;50.044;15.938;2023-01-08T06:08:38;2.70;;;2.50;;
74465;SDS011;62916;50.044;15.938;2023-01-08T06:11:09;1.80;;;1.40;;
74465;SDS011;62916;50.044;15.938;2023-01-08T06:13:42;2.10;;;1.70;;
74465;SDS011;62916;50.044;15.938;2023-01-08T06:16:13;2.00;;;1.80;;
74465;SDS011;62916;50.044;15.938;2023-01-08T06:18:44;1.90;;;1.70;;
74465;SDS011;62916;50.044;15.938;2023-01-08T06:21:15;2.20;;;1.70;;
74465;SDS011;62916;50.044;15.938;2023-01-08T06:23:45;2.00;;;1.90;;
74465;SDS011;62916;50.044;15.938;2023-01-08T06:26:16;2.40;;;2.20;;
74465;SDS011;62916;50.044;15.938;2023-01-08T06:28:47;2.10;;;1.60;;
74465;SDS011;62916;50.044;15.938;2023-01-08T06:31:18;2.40;;;1.70;;
74465;SDS011;62916;50.044;15.938;2023-01-08T06:33:48;2.20;;;2.10;;
74465;SDS011;62916;50.044;15.938;2023-01-08T06:36:20;1.70;;;1.60;;
74465;SDS011;62916;50.044;15.938;2023-01-08T06:38:51;1.80;;;1.70;;
74465;SDS011;62916;50.044;15.938;2023-01-08T06:41:23;2.30;;;1.90;;
74465;SDS011;62916;50.044;15.938;2023-01-08T06:43:53;1.70;;;1.60;;
74465;SDS011;62916;50.044;15.938;2023-01-08T06:46:24;2.20;;;2.00;;
74465;SDS011;62916;50.044;15.938;2023-01-08T06:48:55;2.30;;;1.60;;
74465;SDS011;62916;50.044;15.938;2023-01-08T06:51:26;2.10;;;1.90;;
74465;SDS011;62916;50.044;15.938;2023-01-08T06:53:57;1.90;;;1.70;;
74465;SDS011;62916;50.044;15.938;2023-01-08T06:56:27;2.00;;;1.40;;
74465;SDS011;62916;50.044;15.938;2023-01-08T06:59:01;1.70;;;1.60;;
74465;SDS011;62916;50.044;15.938;2023-01-08T07:01:31;2.20;;;1.70;;
74465;SDS011;62916;50.044;15.938;2023-01-08T07:04:03;1.80;;;1.70;;
74465;SDS011;62916;50.044;15.938;2023-01-08T07:06:34;2.10;;;1.60;;
74465;SDS011;62916;50.044;15.938;2023-01-08T07:09:05;2.10;;;1.90;;
74465;SDS011;62916;50.044;15.938;2023-01-08T07:11:37;1.90;;;1.70;;
74465;SDS011;62916;50.044;15.938;2023-01-08T07:14:07;1.80;;;1.70;;
74465;SDS011;62916;50.044;15.938;2023-01-08T07:16:38;3.00;;;1.80;;
74465;SDS011;62916;50.044;15.938;2023-01-08T07:19:09;3.90;;;1.60;;
74465;SDS011;62916;50.044;15.938;2023-01-08T07:21:40;1.70;;;1.60;;
74465;SDS011;62916;50.044;15.938;2023-01-08T07:24:11;2.70;;;1.60;;
74465;SDS011;62916;50.044;15.938;2023-01-08T07:26:42;1.90;;;1.70;;
74465;SDS011;62916;50.044;15.938;2023-01-08T07:29:12;1.50;;;1.40;;
74465;SDS011;62916;50.044;15.938;2023-01-08T07:31:43;2.10;;;1.50;;
74465;SDS011;62916;50.044;15.938;2023-01-08T07:34:14;2.10;;;1.60;;
74465;SDS011;62916;50.044;15.938;2023-01-08T07:36:45;2.30;;;2.10;;
74465;SDS011;62916;50.044;15.938;2023-01-08T07:39:16;1.90;;;1.70;;
74465;SDS011;62916;50.044;15.938;2023-01-08T07:41:47;1.90;;;1.80;;
74465;SDS011;62916;50.044;15.938;2023-01-08T07:44:17;1.70;;;1.60;;
74465;SDS011;62916;50.044;15.938;2023-01-08T07:46:48;2.70;;;1.70;;
74465;SDS011;62916;50.044;15.938;2023-01-08T07:49:19;1.90;;;1.60;;
74465;SDS011;62916;50.044;15.938;2023-01-08T07:51:50;3.60;;;1.50;;
74465;SDS011;62916;50.044;15.938;2023-01-08T07:54:21;2.20;;;1.90;;
74465;SDS011;62916;50.044;15.938;2023-01-08T07:56:54;2.50;;;1.80;;
74465;SDS011;62916;50.044;15.938;2023-01-08T07:59:24;2.40;;;2.10;;
74465;SDS011;62916;50.044;15.938;2023-01-08T08:01:55;2.50;;;1.90;;
74465;SDS011;62916;50.044;15.938;2023-01-08T08:04:26;1.90;;;1.70;;
74465;SDS011;62916;50.044;15.938;2023-01-08T08:06:57;2.00;;;1.70;;
74465;SDS011;62916;50.044;15.938;2023-01-08T08:09:28;2.00;;;1.80;;
74465;SDS011;62916;50.044;15.938;2023-01-08T08:11:59;4.40;;;1.60;;
74465;SDS011;62916;50.044;15.938;2023-01-08T08:14:30;4.40;;;2.30;;
74465;SDS011;62916;50.044;15.938;2023-01-08T08:17:01;4.60;;;2.50;;
74465;SDS011;62916;50.044;15.938;2023-01-08T08:19:32;3.50;;;2.80;;
74465;SDS011;62916;50.044;15.938;2023-01-08T08:22:03;3.90;;;3.10;;
74465;SDS011;62916;50.044;15.938;2023-01-08T08:24:34;4.70;;;3.00;;
74465;SDS011;62916;50.044;15.938;2023-01-08T08:27:05;4.70;;;3.30;;
74465;SDS011;62916;50.044;15.938;2023-01-08T08:29:36;6.20;;;4.30;;
74465;SDS011;62916;50.044;15.938;2023-01-08T08:32:06;5.10;;;3.90;;
74465;SDS011;62916;50.044;15.938;2023-01-08T08:34:38;8.50;;;4.70;;
74465;SDS011;62916;50.044;15.938;2023-01-08T08:37:08;5.90;;;4.00;;
74465;SDS011;62916;50.044;15.938;2023-01-08T08:39:39;5.90;;;3.90;;
74465;SDS011;62916;50.044;15.938;2023-01-08T08:42:10;6.30;;;4.40;;
74465;SDS011;62916;50.044;15.938;2023-01-08T08:44:41;6.90;;;4.80;;
74465;SDS011;62916;50.044;15.938;2023-01-08T08:47:11;7.40;;;4.50;;
74465;SDS011;62916;50.044;15.938;2023-01-08T08:49:42;6.90;;;4.90;;
74465;SDS011;62916;50.044;15.938;2023-01-08T08:52:13;6.70;;;4.40;;
74465;SDS011;62916;50.044;15.938;2023-01-08T08:54:44;6.60;;;4.90;;
74465;SDS011;62916;50.044;15.938;2023-01-08T08:57:15;6.30;;;4.50;;
74465;SDS011;62916;50.044;15.938;2023-01-08T08:59:46;7.00;;;4.70;;
74465;SDS011;62916;50.044;15.938;2023-01-08T09:02:16;6.30;;;4.30;;
74465;SDS011;62916;50.044;15.938;2023-01-08T09:04:47;6.20;;;3.90;;
74465;SDS011;62916;50.044;15.938;2023-01-08T09:07:18;7.40;;;4.30;;
74465;SDS011;62916;50.044;15.938;2023-01-08T09:09:49;4.60;;;3.80;;
74465;SDS011;62916;50.044;15.938;2023-01-08T09:12:20;6.40;;;3.80;;
74465;SDS011;62916;50.044;15.938;2023-01-08T09:14:51;6.60;;;3.80;;
74465;SDS011;62916;50.044;15.938;2023-01-08T09:17:24;4.70;;;3.30;;
74465;SDS011;62916;50.044;15.938;2023-01-08T09:19:56;4.90;;;3.70;;
74465;SDS011;62916;50.044;15.938;2023-01-08T09:22:27;4.70;;;3.40;;
74465;SDS011;62916;50.044;15.938;2023-01-08T09:24:58;3.90;;;3.30;;
74465;SDS011;62916;50.044;15.938;2023-01-08T09:27:29;4.80;;;3.10;;
74465;SDS011;62916;50.044;15.938;2023-01-08T09:30:00;4.20;;;2.90;;
74465;SDS011;62916;50.044;15.938;2023-01-08T09:32:32;3.90;;;3.00;;
74465;SDS011;62916;50.044;15.938;2023-01-08T09:35:03;4.10;;;3.10;;
74465;SDS011;62916;50.044;15.938;2023-01-08T09:37:35;5.00;;;2.90;;
74465;SDS011;62916;50.044;15.938;2023-01-08T09:40:08;4.90;;;2.80;;
74465;SDS011;62916;50.044;15.938;2023-01-08T09:42:42;3.50;;;2.80;;
74465;SDS011;62916;50.044;15.938;2023-01-08T09:45:23;3.40;;;3.10;;
74465;SDS011;62916;50.044;15.938;2023-01-08T09:47:58;4.10;;;2.50;;
74465;SDS011;62916;50.044;15.938;2023-01-08T09:50:31;3.70;;;2.90;;
74465;SDS011;62916;50.044;15.938;2023-01-08T09:53:04;3.40;;;2.50;;
74465;SDS011;62916;50.044;15.938;2023-01-08T09:55:38;3.20;;;2.50;;
74465;SDS011;62916;50.044;15.938;2023-01-08T09:58:13;3.60;;;3.20;;
74465;SDS011;62916;50.044;15.938;2023-01-08T10:00:58;3.90;;;3.50;;
74465;SDS011;62916;50.044;15.938;2023-01-08T10:03:36;3.10;;;2.30;;
74465;SDS011;62916;50.044;15.938;2023-01-08T10:06:10;4.40;;;2.70;;
74465;SDS011;62916;50.044;15.938;2023-01-08T10:08:42;4.30;;;2.80;;
74465;SDS011;62916;50.044;15.938;2023-01-08T10:11:14;3.80;;;3.00;;
74465;SDS011;62916;50.044;15.938;2023-01-08T10:13:47;3.90;;;2.80;;
74465;SDS011;62916;50.044;15.938;2023-01-08T10:16:23;4.00;;;3.10;;
74465;SDS011;62916;50.044;15.938;2023-01-08T10:18:58;3.40;;;2.70;;
74465;SDS011;62916;50.044;15.938;2023-01-08T10:21:31;3.70;;;2.80;;
74465;SDS011;62916;50.044;15.938;2023-01-08T10:24:08;3.10;;;2.70;;
74465;SDS011;62916;50.044;15.938;2023-01-08T10:26:39;3.20;;;2.60;;
74465;SDS011;62916;50.044;15.938;2023-01-08T10:29:12;3.30;;;2.70;;
74465;SDS011;62916;50.044;15.938;2023-01-08T10:31:45;3.50;;;3.10;;
74465;SDS011;62916;50.044;15.938;2023-01-08T10:34:22;3.60;;;3.00;;
74465;SDS011;62916;50.044;15.938;2023-01-08T10:36:55;5.90;;;5.30;;
74465;SDS011;62916;50.044;15.938;2023-01-08T10:39:26;5.50;;;4.20;;
74465;SDS011;62916;50.044;15.938;2023-01-08T10:42:04;7.10;;;4.60;;
74465;SDS011;62916;50.044;15.938;2023-01-08T10:44:36;6.10;;;5.60;;
74465;SDS011;62916;50.044;15.938;2023-01-08T10:47:12;5.30;;;4.40;;
74465;SDS011;62916;50.044;15.938;2023-01-08T10:49:46;6.00;;;4.90;;
74465;SDS011;62916;50.044;15.938;2023-01-08T10:52:24;5.60;;;4.90;;
74465;SDS011;62916;50.044;15.938;2023-01-08T10:55:09;5.50;;;4.70;;
74465;SDS011;62916;50.044;15.938;2023-01-08T10:57:42;5.60;;;4.90;;
74465;SDS011;62916;50.044;15.938;2023-01-08T11:00:25;6.20;;;5.50;;
74465;SDS011;62916;50.044;15.938;2023-01-08T11:02:59;8.00;;;5.70;;
74465;SDS011;62916;50.044;15.938;2023-01-08T11:05:33;6.50;;;5.80;;
74465;SDS011;62916;50.044;15.938;2023-01-08T11:08:06;7.40;;;6.10;;
74465;SDS011;62916;50.044;15.938;2023-01-08T11:10:53;9.30;;;6.30;;
74465;SDS011;62916;50.044;15.938;2023-01-08T11:13:25;7.90;;;6.20;;
74465;SDS011;62916;50.044;15.938;2023-01-08T11:16:00;7.80;;;5.80;;
74465;SDS011;62916;50.044;15.938;2023-01-08T11:18:34;8.80;;;6.60;;
74465;SDS011;62916;50.044;15.938;2023-01-08T11:21:19;8.30;;;5.90;;
74465;SDS011;62916;50.044;15.938;2023-01-08T11:24:00;11.10;;;7.90;;
74465;SDS011;62916;50.044;15.938;2023-01-08T11:26:46;8.80;;;6.20;;
74465;SDS011;62916;50.044;15.938;2023-01-08T11:29:21;8.90;;;6.70;;
74465;SDS011;62916;50.044;15.938;2023-01-08T11:31:58;8.80;;;6.30;;
74465;SDS011;62916;50.044;15.938;2023-01-08T11:34:49;7.80;;;6.80;;
74465;SDS011;62916;50.044;15.938;2023-01-08T11:37:24;7.90;;;6.20;;
74465;SDS011;62916;50.044;15.938;2023-01-08T11:39:57;7.70;;;6.70;;
74465;SDS011;62916;50.044;15.938;2023-01-08T11:42:32;7.50;;;6.80;;
74465;SDS011;62916;50.044;15.938;2023-01-08T11:45:19;10.70;;;7.90;;
74465;SDS011;62916;50.044;15.938;2023-01-08T11:48:01;7.90;;;6.70;;
74465;SDS011;62916;50.044;15.938;2023-01-08T11:50:45;9.10;;;7.60;;
74465;SDS011;62916;50.044;15.938;2023-01-08T11:53:35;10.10;;;7.60;;
74465;SDS011;62916;50.044;15.938;2023-01-08T11:56:15;9.40;;;6.90;;
74465;SDS011;62916;50.044;15.938;2023-01-08T11:59:02;8.60;;;6.80;;
74465;SDS011;62916;50.044;15.938;2023-01-08T12:01:49;7.80;;;6.90;;
74465;SDS011;62916;50.044;15.938;2023-01-08T12:04:40;12.10;;;8.60;;
74465;SDS011;62916;50.044;15.938;2023-01-08T12:07:30;10.80;;;8.70;;
74465;SDS011;62916;50.044;15.938;2023-01-08T12:10:11;10.80;;;9.00;;
74465;SDS011;62916;50.044;15.938;2023-01-08T12:12:54;11.90;;;8.30;;
74465;SDS011;62916;50.044;15.938;2023-01-08T12:15:38;11.00;;;8.80;;
74465;SDS011;62916;50.044;15.938;2023-01-08T12:18:21;13.60;;;9.50;;
74465;SDS011;62916;50.044;15.938;2023-01-08T12:21:05;10.80;;;8.40;;
74465;SDS011;62916;50.044;15.938;2023-01-08T12:23:45;13.00;;;7.40;;
74465;SDS011;62916;50.044;15.938;2023-01-08T12:26:27;11.10;;;7.80;;
74465;SDS011;62916;50.044;15.938;2023-01-08T12:32:18;10.60;;;7.90;;
74465;SDS011;62916;50.044;15.938;2023-01-08T12:37:30;9.20;;;7.50;;
74465;SDS011;62916;50.044;15.938;2023-01-08T12:40:12;11.00;;;8.30;;
74465;SDS011;62916;50.044;15.938;2023-01-08T12:45:28;11.40;;;7.80;;
74465;SDS011;62916;50.044;15.938;2023-01-08T12:48:03;11.60;;;8.60;;
74465;SDS011;62916;50.044;15.938;2023-01-08T12:50:43;10.50;;;8.20;;
74465;SDS011;62916;50.044;15.938;2023-01-08T12:53:24;10.60;;;7.80;;
74465;SDS011;62916;50.044;15.938;2023-01-08T12:56:07;12.10;;;8.40;;
74465;SDS011;62916;50.044;15.938;2023-01-08T12:58:47;9.40;;;7.50;;
74465;SDS011;62916;50.044;15.938;2023-01-08T13:01:36;7.80;;;6.70;;
74465;SDS011;62916;50.044;15.938;2023-01-08T13:04:15;9.40;;;7.60;;
74465;SDS011;62916;50.044;15.938;2023-01-08T13:06:50;10.20;;;7.80;;
74465;SDS011;62916;50.044;15.938;2023-01-08T13:09:27;9.80;;;7.90;;
74465;SDS011;62916;50.044;15.938;2023-01-08T13:11:59;10.00;;;7.50;;
74465;SDS011;62916;50.044;15.938;2023-01-08T13:14:38;9.80;;;8.10;;
74465;SDS011;62916;50.044;15.938;2023-01-08T13:17:16;9.60;;;7.60;;
74465;SDS011;62916;50.044;15.938;2023-01-08T13:19:52;10.30;;;7.20;;
74465;SDS011;62916;50.044;15.938;2023-01-08T13:22:28;9.30;;;7.10;;
74465;SDS011;62916;50.044;15.938;2023-01-08T13:28:23;8.80;;;7.00;;
74465;SDS011;62916;50.044;15.938;2023-01-08T13:31:08;9.60;;;7.20;;
74465;SDS011;62916;50.044;15.938;2023-01-08T13:33:54;8.90;;;6.60;;
74465;SDS011;62916;50.044;15.938;2023-01-08T13:36:25;8.40;;;7.10;;
74465;SDS011;62916;50.044;15.938;2023-01-08T13:39:01;9.50;;;7.20;;
74465;SDS011;62916;50.044;15.938;2023-01-08T13:41:35;8.70;;;7.00;;
74465;SDS011;62916;50.044;15.938;2023-01-08T13:44:15;9.60;;;6.80;;
74465;SDS011;62916;50.044;15.938;2023-01-08T13:46:53;7.90;;;6.90;;
74465;SDS011;62916;50.044;15.938;2023-01-08T13:49:27;8.00;;;6.60;;
74465;SDS011;62916;50.044;15.938;2023-01-08T13:52:02;8.40;;;6.90;;
74465;SDS011;62916;50.044;15.938;2023-01-08T13:54:34;10.90;;;7.20;;
74465;SDS011;62916;50.044;15.938;2023-01-08T13:57:11;8.20;;;6.40;;
74465;SDS011;62916;50.044;15.938;2023-01-08T13:59:47;9.60;;;7.00;;
74465;SDS011;62916;50.044;15.938;2023-01-08T14:02:23;9.40;;;6.80;;
74465;SDS011;62916;50.044;15.938;2023-01-08T14:04:59;8.50;;;6.90;;
74465;SDS011;62916;50.044;15.938;2023-01-08T14:07:30;8.40;;;6.80;;
74465;SDS011;62916;50.044;15.938;2023-01-08T14:10:10;7.90;;;5.90;;
74465;SDS011;62916;50.044;15.938;2023-01-08T14:12:43;9.30;;;7.10;;
74465;SDS011;62916;50.044;15.938;2023-01-08T14:15:19;9.40;;;6.50;;
74465;SDS011;62916;50.044;15.938;2023-01-08T14:17:54;11.10;;;6.70;;
74465;SDS011;62916;50.044;15.938;2023-01-08T14:20:31;9.40;;;6.30;;
74465;SDS011;62916;50.044;15.938;2023-01-08T14:23:10;9.00;;;7.10;;
74465;SDS011;62916;50.044;15.938;2023-01-08T14:25:51;7.80;;;6.40;;
74465;SDS011;62916;50.044;15.938;2023-01-08T14:28:23;7.10;;;6.00;;
74465;SDS011;62916;50.044;15.938;2023-01-08T14:30:54;8.70;;;5.80;;
74465;SDS011;62916;50.044;15.938;2023-01-08T14:33:28;7.30;;;6.00;;
74465;SDS011;62916;50.044;15.938;2023-01-08T14:36:01;6.90;;;5.80;;
74465;SDS011;62916;50.044;15.938;2023-01-08T14:38:35;7.90;;;6.10;;
74465;SDS011;62916;50.044;15.938;2023-01-08T14:41:07;7.30;;;6.30;;
74465;SDS011;62916;50.044;15.938;2023-01-08T14:43:41;7.70;;;5.90;;
74465;SDS011;62916;50.044;15.938;2023-01-08T14:46:17;6.90;;;6.00;;
74465;SDS011;62916;50.044;15.938;2023-01-08T14:48:50;6.10;;;5.50;;
74465;SDS011;62916;50.044;15.938;2023-01-08T14:51:23;6.70;;;5.20;;
74465;SDS011;62916;50.044;15.938;2023-01-08T14:53:57;7.10;;;5.30;;
74465;SDS011;62916;50.044;15.938;2023-01-08T14:56:32;7.20;;;6.30;;
74465;SDS011;62916;50.044;15.938;2023-01-08T14:59:07;7.20;;;5.60;;
74465;SDS011;62916;50.044;15.938;2023-01-08T15:01:39;8.30;;;6.00;;
74465;SDS011;62916;50.044;15.938;2023-01-08T15:04:15;9.50;;;5.90;;
74465;SDS011;62916;50.044;15.938;2023-01-08T15:06:47;7.30;;;5.10;;
74465;SDS011;62916;50.044;15.938;2023-01-08T15:09:23;7.60;;;5.50;;
74465;SDS011;62916;50.044;15.938;2023-01-08T15:11:56;5.80;;;5.10;;
74465;SDS011;62916;50.044;15.938;2023-01-08T15:14:28;7.30;;;5.10;;
74465;SDS011;62916;50.044;15.938;2023-01-08T15:17:07;6.80;;;5.40;;
74465;SDS011;62916;50.044;15.938;2023-01-08T15:19:40;6.40;;;5.70;;
74465;SDS011;62916;50.044;15.938;2023-01-08T15:22:17;6.00;;;5.40;;
74465;SDS011;62916;50.044;15.938;2023-01-08T15:24:53;7.70;;;5.60;;
74465;SDS011;62916;50.044;15.938;2023-01-08T15:27:26;6.70;;;5.30;;
74465;SDS011;62916;50.044;15.938;2023-01-08T15:30:01;6.30;;;4.80;;